RJCC/CTS METAR and TAF weather

Enter ICAO airport designator
Station Type Date Time Source
RJCC METAR 2020/11/25 22:00 UTC NOAA

RJCC 252200Z 04004KT 9999 FEW030 SCT045 BKN070 03/01 Q1015


Station Type Date Time Source
RJCC Decoded METAR 2020/11/25 22:00 UTC NOAA

Chitose Ab, Japan (RJCC) 42-48N 141-40E 30M
Nov 25, 2020 - 05:00 PM EST / 2020.11.25 2200 UTC
Wind: from the NE (040 degrees) at 5 MPH (4 KT):0
Visibility: greater than 7 mile(s):0
Sky conditions: mostly cloudy
Temperature: 37 F (3 C)
Dew Point: 33 F (1 C)
Relative Humidity: 86%
Pressure (altimeter): 29.97 in. Hg (1015 hPa)
ob: RJCC 252200Z 04004KT 9999 FEW030 SCT045 BKN070 03/01 Q1015
cycle: 22

Station Type Date Time Source
RJCC TAF 2020/11/25 21:36 UTC NOAA

TAF
AMD RJCC 252116Z 2521/2700 21005KT 9999 FEW010 BKN025
BECMG 2522/2600 34012KT
BECMG 2615/2618 17004KT

Example: see airport list